sensor_id;sensor_type;location;lat;lon;timestamp;P1;durP1;ratioP1;P2;durP2;ratioP2
20609;SDS011;10463;52.378;9.688;2023-05-17T00:01:29;2.90;;;1.87;;
20609;SDS011;10463;52.378;9.688;2023-05-17T00:04:14;3.03;;;1.80;;
20609;SDS011;10463;52.378;9.688;2023-05-17T00:07:00;2.00;;;1.60;;
20609;SDS011;10463;52.378;9.688;2023-05-17T00:09:45;2.50;;;1.63;;
20609;SDS011;10463;52.378;9.688;2023-05-17T00:12:30;3.30;;;1.93;;
20609;SDS011;10463;52.378;9.688;2023-05-17T00:15:14;1.90;;;1.40;;
20609;SDS011;10463;52.378;9.688;2023-05-17T00:17:59;2.20;;;1.80;;
20609;SDS011;10463;52.378;9.688;2023-05-17T00:20:43;3.00;;;2.10;;
20609;SDS011;10463;52.378;9.688;2023-05-17T00:23:30;2.93;;;2.03;;
20609;SDS011;10463;52.378;9.688;2023-05-17T00:26:14;2.87;;;1.70;;
20609;SDS011;10463;52.378;9.688;2023-05-17T00:28:59;4.30;;;2.17;;
20609;SDS011;10463;52.378;9.688;2023-05-17T00:31:44;3.93;;;2.07;;
20609;SDS011;10463;52.378;9.688;2023-05-17T00:34:28;4.13;;;2.57;;
20609;SDS011;10463;52.378;9.688;2023-05-17T00:37:14;4.60;;;2.10;;
20609;SDS011;10463;52.378;9.688;2023-05-17T00:40:00;3.80;;;2.00;;
20609;SDS011;10463;52.378;9.688;2023-05-17T00:42:46;4.63;;;2.77;;
20609;SDS011;10463;52.378;9.688;2023-05-17T00:45:30;2.67;;;1.97;;
20609;SDS011;10463;52.378;9.688;2023-05-17T00:48:15;3.33;;;2.40;;
20609;SDS011;10463;52.378;9.688;2023-05-17T00:51:00;5.07;;;3.17;;
20609;SDS011;10463;52.378;9.688;2023-05-17T00:53:45;3.47;;;2.20;;
20609;SDS011;10463;52.378;9.688;2023-05-17T00:56:32;3.67;;;2.43;;
20609;SDS011;10463;52.378;9.688;2023-05-17T00:59:18;4.43;;;2.07;;
20609;SDS011;10463;52.378;9.688;2023-05-17T01:02:05;4.30;;;2.57;;
20609;SDS011;10463;52.378;9.688;2023-05-17T01:04:50;3.60;;;1.93;;
20609;SDS011;10463;52.378;9.688;2023-05-17T01:07:35;2.97;;;2.37;;
20609;SDS011;10463;52.378;9.688;2023-05-17T01:10:20;5.30;;;3.27;;
20609;SDS011;10463;52.378;9.688;2023-05-17T01:13:14;3.93;;;2.60;;
20609;SDS011;10463;52.378;9.688;2023-05-17T01:16:09;3.40;;;2.23;;
20609;SDS011;10463;52.378;9.688;2023-05-17T01:19:01;4.47;;;2.07;;
20609;SDS011;10463;52.378;9.688;2023-05-17T01:22:07;3.60;;;1.90;;
20609;SDS011;10463;52.378;9.688;2023-05-17T01:25:10;3.53;;;2.40;;
20609;SDS011;10463;52.378;9.688;2023-05-17T01:28:03;3.90;;;2.27;;
20609;SDS011;10463;52.378;9.688;2023-05-17T01:30:50;4.50;;;1.93;;
20609;SDS011;10463;52.378;9.688;2023-05-17T01:33:36;3.23;;;2.43;;
20609;SDS011;10463;52.378;9.688;2023-05-17T01:36:22;3.70;;;2.30;;
20609;SDS011;10463;52.378;9.688;2023-05-17T01:39:07;4.00;;;2.07;;
20609;SDS011;10463;52.378;9.688;2023-05-17T01:41:56;3.60;;;2.27;;
20609;SDS011;10463;52.378;9.688;2023-05-17T01:44:49;7.47;;;2.33;;
20609;SDS011;10463;52.378;9.688;2023-05-17T01:47:49;3.07;;;2.10;;
20609;SDS011;10463;52.378;9.688;2023-05-17T01:50:43;4.00;;;2.40;;
20609;SDS011;10463;52.378;9.688;2023-05-17T01:53:34;3.30;;;2.23;;
20609;SDS011;10463;52.378;9.688;2023-05-17T01:56:26;3.87;;;2.63;;
20609;SDS011;10463;52.378;9.688;2023-05-17T01:59:18;7.87;;;2.30;;
20609;SDS011;10463;52.378;9.688;2023-05-17T02:02:07;3.57;;;2.30;;
20609;SDS011;10463;52.378;9.688;2023-05-17T02:04:53;3.57;;;2.57;;
20609;SDS011;10463;52.378;9.688;2023-05-17T02:07:38;4.43;;;2.13;;
20609;SDS011;10463;52.378;9.688;2023-05-17T02:10:22;2.93;;;2.20;;
20609;SDS011;10463;52.378;9.688;2023-05-17T02:13:07;4.77;;;2.57;;
20609;SDS011;10463;52.378;9.688;2023-05-17T02:15:52;3.90;;;2.50;;
20609;SDS011;10463;52.378;9.688;2023-05-17T02:18:38;3.30;;;2.30;;
20609;SDS011;10463;52.378;9.688;2023-05-17T02:21:24;5.00;;;2.77;;
20609;SDS011;10463;52.378;9.688;2023-05-17T02:24:08;5.00;;;2.70;;
20609;SDS011;10463;52.378;9.688;2023-05-17T02:26:53;4.07;;;2.20;;
20609;SDS011;10463;52.378;9.688;2023-05-17T02:29:38;4.73;;;2.67;;
20609;SDS011;10463;52.378;9.688;2023-05-17T02:32:23;3.10;;;2.13;;
20609;SDS011;10463;52.378;9.688;2023-05-17T02:35:09;4.33;;;2.60;;
20609;SDS011;10463;52.378;9.688;2023-05-17T02:37:53;4.40;;;2.40;;
20609;SDS011;10463;52.378;9.688;2023-05-17T02:40:39;4.03;;;2.37;;
20609;SDS011;10463;52.378;9.688;2023-05-17T02:43:24;5.60;;;2.30;;
20609;SDS011;10463;52.378;9.688;2023-05-17T02:46:09;6.53;;;3.60;;
20609;SDS011;10463;52.378;9.688;2023-05-17T02:48:54;4.07;;;2.27;;
20609;SDS011;10463;52.378;9.688;2023-05-17T02:51:40;4.73;;;2.63;;
20609;SDS011;10463;52.378;9.688;2023-05-17T02:54:25;4.90;;;2.80;;
20609;SDS011;10463;52.378;9.688;2023-05-17T02:57:10;4.20;;;2.60;;
20609;SDS011;10463;52.378;9.688;2023-05-17T02:59:55;3.93;;;2.57;;
20609;SDS011;10463;52.378;9.688;2023-05-17T03:02:39;5.90;;;2.87;;
20609;SDS011;10463;52.378;9.688;2023-05-17T03:05:24;3.40;;;2.30;;
20609;SDS011;10463;52.378;9.688;2023-05-17T03:08:11;5.27;;;2.77;;
20609;SDS011;10463;52.378;9.688;2023-05-17T03:10:55;4.00;;;2.70;;
20609;SDS011;10463;52.378;9.688;2023-05-17T03:13:40;4.70;;;2.10;;
20609;SDS011;10463;52.378;9.688;2023-05-17T03:16:25;3.53;;;2.03;;
20609;SDS011;10463;52.378;9.688;2023-05-17T03:19:10;4.17;;;2.63;;
20609;SDS011;10463;52.378;9.688;2023-05-17T03:21:56;4.50;;;2.87;;
20609;SDS011;10463;52.378;9.688;2023-05-17T03:24:42;4.53;;;2.47;;
20609;SDS011;10463;52.378;9.688;2023-05-17T03:27:27;5.30;;;3.10;;
20609;SDS011;10463;52.378;9.688;2023-05-17T03:30:14;4.03;;;2.73;;
20609;SDS011;10463;52.378;9.688;2023-05-17T03:32:59;4.50;;;2.87;;
20609;SDS011;10463;52.378;9.688;2023-05-17T03:35:44;4.00;;;2.47;;
20609;SDS011;10463;52.378;9.688;2023-05-17T03:38:31;3.73;;;2.43;;
20609;SDS011;10463;52.378;9.688;2023-05-17T03:41:18;6.63;;;3.50;;
20609;SDS011;10463;52.378;9.688;2023-05-17T03:44:03;4.57;;;2.63;;
20609;SDS011;10463;52.378;9.688;2023-05-17T03:46:49;6.70;;;3.30;;
20609;SDS011;10463;52.378;9.688;2023-05-17T03:49:35;4.87;;;2.93;;
20609;SDS011;10463;52.378;9.688;2023-05-17T03:52:20;5.70;;;3.00;;
20609;SDS011;10463;52.378;9.688;2023-05-17T03:55:06;7.33;;;3.10;;
20609;SDS011;10463;52.378;9.688;2023-05-17T03:57:54;6.73;;;2.87;;
20609;SDS011;10463;52.378;9.688;2023-05-17T04:00:39;6.70;;;2.83;;
20609;SDS011;10463;52.378;9.688;2023-05-17T04:03:30;4.67;;;2.50;;
20609;SDS011;10463;52.378;9.688;2023-05-17T04:06:16;5.23;;;2.87;;
20609;SDS011;10463;52.378;9.688;2023-05-17T04:09:00;4.30;;;2.43;;
20609;SDS011;10463;52.378;9.688;2023-05-17T04:11:45;7.20;;;3.20;;
20609;SDS011;10463;52.378;9.688;2023-05-17T04:14:32;4.20;;;2.80;;
20609;SDS011;10463;52.378;9.688;2023-05-17T04:17:16;3.73;;;2.20;;
20609;SDS011;10463;52.378;9.688;2023-05-17T04:20:03;6.30;;;2.67;;
20609;SDS011;10463;52.378;9.688;2023-05-17T04:22:50;6.33;;;2.90;;
20609;SDS011;10463;52.378;9.688;2023-05-17T04:25:36;5.00;;;2.90;;
20609;SDS011;10463;52.378;9.688;2023-05-17T04:28:20;5.83;;;2.70;;
20609;SDS011;10463;52.378;9.688;2023-05-17T04:31:07;4.40;;;2.00;;
20609;SDS011;10463;52.378;9.688;2023-05-17T04:33:52;5.33;;;2.73;;
20609;SDS011;10463;52.378;9.688;2023-05-17T04:36:37;4.90;;;2.90;;
20609;SDS011;10463;52.378;9.688;2023-05-17T04:39:22;4.63;;;2.50;;
20609;SDS011;10463;52.378;9.688;2023-05-17T04:42:07;8.10;;;3.13;;
20609;SDS011;10463;52.378;9.688;2023-05-17T04:44:56;4.47;;;2.70;;
20609;SDS011;10463;52.378;9.688;2023-05-17T04:47:43;6.83;;;2.67;;
20609;SDS011;10463;52.378;9.688;2023-05-17T04:50:28;8.27;;;2.73;;
20609;SDS011;10463;52.378;9.688;2023-05-17T04:53:13;6.30;;;3.03;;
20609;SDS011;10463;52.378;9.688;2023-05-17T04:55:59;4.57;;;2.97;;
20609;SDS011;10463;52.378;9.688;2023-05-17T04:58:44;4.53;;;2.60;;
20609;SDS011;10463;52.378;9.688;2023-05-17T05:01:29;5.60;;;2.60;;
20609;SDS011;10463;52.378;9.688;2023-05-17T05:04:17;6.43;;;3.10;;
20609;SDS011;10463;52.378;9.688;2023-05-17T05:07:05;4.80;;;2.80;;
20609;SDS011;10463;52.378;9.688;2023-05-17T05:09:50;8.20;;;3.53;;
20609;SDS011;10463;52.378;9.688;2023-05-17T05:12:36;6.80;;;3.50;;
20609;SDS011;10463;52.378;9.688;2023-05-17T05:15:22;4.60;;;2.60;;
20609;SDS011;10463;52.378;9.688;2023-05-17T05:18:12;9.13;;;3.30;;
20609;SDS011;10463;52.378;9.688;2023-05-17T05:20:59;5.80;;;2.77;;
20609;SDS011;10463;52.378;9.688;2023-05-17T05:23:44;7.50;;;3.30;;
20609;SDS011;10463;52.378;9.688;2023-05-17T05:26:30;7.63;;;2.93;;
20609;SDS011;10463;52.378;9.688;2023-05-17T05:29:16;7.43;;;3.47;;
20609;SDS011;10463;52.378;9.688;2023-05-17T05:32:02;9.67;;;3.00;;
20609;SDS011;10463;52.378;9.688;2023-05-17T05:34:50;5.40;;;2.83;;
20609;SDS011;10463;52.378;9.688;2023-05-17T05:37:36;5.20;;;3.17;;
20609;SDS011;10463;52.378;9.688;2023-05-17T05:40:21;4.13;;;2.77;;
20609;SDS011;10463;52.378;9.688;2023-05-17T05:43:06;8.93;;;2.93;;
20609;SDS011;10463;52.378;9.688;2023-05-17T05:45:51;6.13;;;2.97;;
20609;SDS011;10463;52.378;9.688;2023-05-17T05:48:38;6.53;;;3.13;;
20609;SDS011;10463;52.378;9.688;2023-05-17T05:51:25;5.73;;;2.57;;
20609;SDS011;10463;52.378;9.688;2023-05-17T05:54:11;8.03;;;2.87;;
20609;SDS011;10463;52.378;9.688;2023-05-17T05:56:56;4.50;;;2.73;;
20609;SDS011;10463;52.378;9.688;2023-05-17T05:59:43;5.37;;;2.90;;
20609;SDS011;10463;52.378;9.688;2023-05-17T06:02:28;5.07;;;2.57;;
20609;SDS011;10463;52.378;9.688;2023-05-17T06:05:15;6.37;;;2.30;;
20609;SDS011;10463;52.378;9.688;2023-05-17T06:08:00;5.60;;;2.70;;
20609;SDS011;10463;52.378;9.688;2023-05-17T06:10:46;7.03;;;3.27;;
20609;SDS011;10463;52.378;9.688;2023-05-17T06:13:30;4.03;;;2.10;;
20609;SDS011;10463;52.378;9.688;2023-05-17T06:16:15;6.13;;;2.77;;
20609;SDS011;10463;52.378;9.688;2023-05-17T06:18:59;4.23;;;1.83;;
20609;SDS011;10463;52.378;9.688;2023-05-17T06:21:44;5.53;;;2.33;;
20609;SDS011;10463;52.378;9.688;2023-05-17T06:24:29;3.90;;;1.93;;
20609;SDS011;10463;52.378;9.688;2023-05-17T06:27:15;4.10;;;2.33;;
20609;SDS011;10463;52.378;9.688;2023-05-17T06:30:00;4.90;;;2.20;;
20609;SDS011;10463;52.378;9.688;2023-05-17T06:32:45;3.30;;;1.83;;
20609;SDS011;10463;52.378;9.688;2023-05-17T06:35:29;3.60;;;1.70;;
20609;SDS011;10463;52.378;9.688;2023-05-17T06:38:14;5.23;;;2.37;;
20609;SDS011;10463;52.378;9.688;2023-05-17T06:40:59;2.90;;;1.70;;
20609;SDS011;10463;52.378;9.688;2023-05-17T06:43:45;5.33;;;2.30;;
20609;SDS011;10463;52.378;9.688;2023-05-17T06:46:30;2.90;;;1.90;;
20609;SDS011;10463;52.378;9.688;2023-05-17T06:49:14;6.40;;;2.40;;
20609;SDS011;10463;52.378;9.688;2023-05-17T06:51:59;3.50;;;1.70;;
20609;SDS011;10463;52.378;9.688;2023-05-17T06:54:46;3.13;;;1.93;;
20609;SDS011;10463;52.378;9.688;2023-05-17T06:57:31;4.07;;;1.80;;
20609;SDS011;10463;52.378;9.688;2023-05-17T07:00:18;4.03;;;2.43;;
20609;SDS011;10463;52.378;9.688;2023-05-17T07:03:04;9.17;;;4.07;;
20609;SDS011;10463;52.378;9.688;2023-05-17T07:05:49;7.40;;;6.13;;
20609;SDS011;10463;52.378;9.688;2023-05-17T07:08:34;8.93;;;6.10;;
20609;SDS011;10463;52.378;9.688;2023-05-17T07:11:18;7.80;;;6.33;;
20609;SDS011;10463;52.378;9.688;2023-05-17T07:14:03;12.73;;;8.13;;
20609;SDS011;10463;52.378;9.688;2023-05-17T07:16:49;10.27;;;7.50;;
20609;SDS011;10463;52.378;9.688;2023-05-17T07:19:34;9.30;;;6.93;;
20609;SDS011;10463;52.378;9.688;2023-05-17T07:22:19;8.93;;;6.90;;
20609;SDS011;10463;52.378;9.688;2023-05-17T07:25:05;11.80;;;6.30;;
20609;SDS011;10463;52.378;9.688;2023-05-17T07:27:51;8.90;;;7.20;;
20609;SDS011;10463;52.378;9.688;2023-05-17T07:30:36;10.23;;;7.20;;
20609;SDS011;10463;52.378;9.688;2023-05-17T07:33:22;16.47;;;7.60;;
20609;SDS011;10463;52.378;9.688;2023-05-17T07:36:07;8.97;;;6.77;;
20609;SDS011;10463;52.378;9.688;2023-05-17T07:38:53;6.97;;;5.60;;
20609;SDS011;10463;52.378;9.688;2023-05-17T07:41:38;9.10;;;6.70;;
20609;SDS011;10463;52.378;9.688;2023-05-17T07:44:23;9.47;;;7.07;;
20609;SDS011;10463;52.378;9.688;2023-05-17T07:47:07;10.40;;;7.70;;
20609;SDS011;10463;52.378;9.688;2023-05-17T07:49:54;10.40;;;7.20;;
20609;SDS011;10463;52.378;9.688;2023-05-17T07:52:39;7.23;;;5.17;;
20609;SDS011;10463;52.378;9.688;2023-05-17T07:55:24;9.93;;;6.60;;
20609;SDS011;10463;52.378;9.688;2023-05-17T07:58:09;8.53;;;5.90;;
20609;SDS011;10463;52.378;9.688;2023-05-17T08:00:55;8.77;;;6.57;;
20609;SDS011;10463;52.378;9.688;2023-05-17T08:03:40;9.07;;;7.53;;
20609;SDS011;10463;52.378;9.688;2023-05-17T08:06:32;12.77;;;8.13;;
20609;SDS011;10463;52.378;9.688;2023-05-17T08:09:16;10.27;;;7.50;;
20609;SDS011;10463;52.378;9.688;2023-05-17T08:12:04;13.13;;;10.30;;
20609;SDS011;10463;52.378;9.688;2023-05-17T08:14:49;13.20;;;9.63;;
20609;SDS011;10463;52.378;9.688;2023-05-17T08:17:34;13.10;;;10.47;;
20609;SDS011;10463;52.378;9.688;2023-05-17T08:20:19;13.07;;;11.23;;
20609;SDS011;10463;52.378;9.688;2023-05-17T08:23:05;15.20;;;10.90;;
20609;SDS011;10463;52.378;9.688;2023-05-17T08:25:50;14.83;;;9.93;;
20609;SDS011;10463;52.378;9.688;2023-05-17T08:28:35;11.30;;;9.10;;
20609;SDS011;10463;52.378;9.688;2023-05-17T08:31:20;11.27;;;8.47;;
20609;SDS011;10463;52.378;9.688;2023-05-17T08:34:04;14.93;;;11.50;;
20609;SDS011;10463;52.378;9.688;2023-05-17T08:36:49;13.87;;;10.37;;
20609;SDS011;10463;52.378;9.688;2023-05-17T08:39:36;11.97;;;7.70;;
20609;SDS011;10463;52.378;9.688;2023-05-17T08:42:21;10.20;;;7.60;;
20609;SDS011;10463;52.378;9.688;2023-05-17T08:45:09;11.47;;;6.40;;
20609;SDS011;10463;52.378;9.688;2023-05-17T08:47:55;7.13;;;4.60;;
20609;SDS011;10463;52.378;9.688;2023-05-17T08:50:39;8.93;;;5.20;;
20609;SDS011;10463;52.378;9.688;2023-05-17T08:53:25;17.50;;;7.20;;
20609;SDS011;10463;52.378;9.688;2023-05-17T08:56:13;12.73;;;6.10;;
20609;SDS011;10463;52.378;9.688;2023-05-17T08:59:00;10.00;;;5.83;;
20609;SDS011;10463;52.378;9.688;2023-05-17T09:01:48;22.27;;;7.50;;
20609;SDS011;10463;52.378;9.688;2023-05-17T09:04:37;18.00;;;6.20;;
20609;SDS011;10463;52.378;9.688;2023-05-17T09:07:22;14.20;;;4.73;;
20609;SDS011;10463;52.378;9.688;2023-05-17T09:10:08;11.87;;;5.10;;
20609;SDS011;10463;52.378;9.688;2023-05-17T09:12:55;11.23;;;4.10;;
20609;SDS011;10463;52.378;9.688;2023-05-17T09:15:41;7.03;;;3.50;;
20609;SDS011;10463;52.378;9.688;2023-05-17T09:18:30;5.90;;;3.13;;
20609;SDS011;10463;52.378;9.688;2023-05-17T09:21:15;3.57;;;1.83;;
20609;SDS011;10463;52.378;9.688;2023-05-17T09:24:00;3.83;;;2.17;;
20609;SDS011;10463;52.378;9.688;2023-05-17T09:26:45;3.53;;;2.17;;
20609;SDS011;10463;52.378;9.688;2023-05-17T09:29:31;3.80;;;2.07;;
20609;SDS011;10463;52.378;9.688;2023-05-17T09:32:18;3.40;;;2.17;;
20609;SDS011;10463;52.378;9.688;2023-05-17T09:35:08;3.77;;;1.77;;
20609;SDS011;10463;52.378;9.688;2023-05-17T09:37:54;5.90;;;2.30;;
20609;SDS011;10463;52.378;9.688;2023-05-17T09:40:48;4.07;;;1.80;;
20609;SDS011;10463;52.378;9.688;2023-05-17T09:43:33;4.10;;;2.03;;
20609;SDS011;10463;52.378;9.688;2023-05-17T09:46:21;3.77;;;1.77;;
20609;SDS011;10463;52.378;9.688;2023-05-17T09:49:07;2.83;;;1.87;;
20609;SDS011;10463;52.378;9.688;2023-05-17T09:51:52;3.50;;;1.70;;
20609;SDS011;10463;52.378;9.688;2023-05-17T09:54:38;2.63;;;1.40;;
20609;SDS011;10463;52.378;9.688;2023-05-17T09:57:25;3.77;;;2.00;;
20609;SDS011;10463;52.378;9.688;2023-05-17T10:00:12;3.40;;;1.63;;
20609;SDS011;10463;52.378;9.688;2023-05-17T10:03:01;3.50;;;2.03;;
20609;SDS011;10463;52.378;9.688;2023-05-17T10:05:50;3.63;;;1.90;;
20609;SDS011;10463;52.378;9.688;2023-05-17T10:08:37;3.80;;;2.20;;
20609;SDS011;10463;52.378;9.688;2023-05-17T10:11:27;3.83;;;2.63;;
20609;SDS011;10463;52.378;9.688;2023-05-17T10:14:20;3.57;;;2.87;;
20609;SDS011;10463;52.378;9.688;2023-05-17T10:17:09;5.97;;;3.87;;
20609;SDS011;10463;52.378;9.688;2023-05-17T10:19:56;7.43;;;3.87;;
20609;SDS011;10463;52.378;9.688;2023-05-17T10:22:42;7.57;;;4.50;;
20609;SDS011;10463;52.378;9.688;2023-05-17T10:25:27;4.73;;;3.20;;
20609;SDS011;10463;52.378;9.688;2023-05-17T10:28:13;4.63;;;3.30;;
20609;SDS011;10463;52.378;9.688;2023-05-17T10:31:00;5.30;;;2.97;;
20609;SDS011;10463;52.378;9.688;2023-05-17T10:33:47;4.40;;;3.23;;
20609;SDS011;10463;52.378;9.688;2023-05-17T10:36:36;5.30;;;3.50;;
20609;SDS011;10463;52.378;9.688;2023-05-17T10:39:21;6.27;;;4.30;;
20609;SDS011;10463;52.378;9.688;2023-05-17T10:42:09;6.60;;;4.93;;
20609;SDS011;10463;52.378;9.688;2023-05-17T10:44:55;4.80;;;3.70;;
20609;SDS011;10463;52.378;9.688;2023-05-17T10:47:40;5.43;;;4.20;;
20609;SDS011;10463;52.378;9.688;2023-05-17T10:50:26;9.13;;;4.90;;
20609;SDS011;10463;52.378;9.688;2023-05-17T10:53:11;5.73;;;4.63;;
20609;SDS011;10463;52.378;9.688;2023-05-17T10:55:56;6.20;;;4.77;;
20609;SDS011;10463;52.378;9.688;2023-05-17T10:58:43;5.07;;;3.90;;
20609;SDS011;10463;52.378;9.688;2023-05-17T11:01:49;6.10;;;4.53;;
20609;SDS011;10463;52.378;9.688;2023-05-17T11:04:39;5.40;;;3.80;;
20609;SDS011;10463;52.378;9.688;2023-05-17T11:07:26;6.93;;;3.80;;
20609;SDS011;10463;52.378;9.688;2023-05-17T11:10:15;4.30;;;3.63;;
20609;SDS011;10463;52.378;9.688;2023-05-17T11:13:01;5.83;;;3.90;;
20609;SDS011;10463;52.378;9.688;2023-05-17T11:16:07;4.60;;;3.30;;
20609;SDS011;10463;52.378;9.688;2023-05-17T11:18:53;4.70;;;3.40;;
20609;SDS011;10463;52.378;9.688;2023-05-17T11:21:47;5.20;;;3.20;;
20609;SDS011;10463;52.378;9.688;2023-05-17T11:24:32;4.60;;;3.80;;
20609;SDS011;10463;52.378;9.688;2023-05-17T11:27:19;4.23;;;2.80;;
20609;SDS011;10463;52.378;9.688;2023-05-17T11:30:15;5.77;;;3.00;;
20609;SDS011;10463;52.378;9.688;2023-05-17T11:33:05;5.20;;;3.17;;
20609;SDS011;10463;52.378;9.688;2023-05-17T11:35:53;5.73;;;4.17;;
20609;SDS011;10463;52.378;9.688;2023-05-17T11:38:38;5.97;;;4.47;;
20609;SDS011;10463;52.378;9.688;2023-05-17T11:41:23;4.70;;;3.53;;
20609;SDS011;10463;52.378;9.688;2023-05-17T11:44:08;4.30;;;3.10;;
20609;SDS011;10463;52.378;9.688;2023-05-17T11:46:59;4.63;;;2.70;;
20609;SDS011;10463;52.378;9.688;2023-05-17T11:49:47;4.63;;;2.83;;
20609;SDS011;10463;52.378;9.688;2023-05-17T11:52:35;5.10;;;2.97;;
20609;SDS011;10463;52.378;9.688;2023-05-17T11:55:23;4.40;;;2.30;;
20609;SDS011;10463;52.378;9.688;2023-05-17T11:58:09;2.90;;;2.10;;
20609;SDS011;10463;52.378;9.688;2023-05-17T12:00:57;3.63;;;2.70;;
20609;SDS011;10463;52.378;9.688;2023-05-17T12:03:42;3.80;;;2.37;;
20609;SDS011;10463;52.378;9.688;2023-05-17T12:06:29;3.00;;;2.53;;
20609;SDS011;10463;52.378;9.688;2023-05-17T12:09:16;6.63;;;2.67;;
20609;SDS011;10463;52.378;9.688;2023-05-17T12:12:02;3.70;;;2.20;;
20609;SDS011;10463;52.378;9.688;2023-05-17T12:14:48;3.00;;;2.00;;
20609;SDS011;10463;52.378;9.688;2023-05-17T12:17:36;3.10;;;2.07;;
20609;SDS011;10463;52.378;9.688;2023-05-17T12:20:23;4.30;;;2.70;;
20609;SDS011;10463;52.378;9.688;2023-05-17T12:23:09;4.13;;;2.07;;
20609;SDS011;10463;52.378;9.688;2023-05-17T12:26:04;2.60;;;1.60;;
20609;SDS011;10463;52.378;9.688;2023-05-17T12:28:54;3.27;;;1.90;;
20609;SDS011;10463;52.378;9.688;2023-05-17T12:31:41;4.03;;;2.00;;
20609;SDS011;10463;52.378;9.688;2023-05-17T12:34:28;3.00;;;1.80;;
20609;SDS011;10463;52.378;9.688;2023-05-17T12:37:14;3.20;;;2.03;;
20609;SDS011;10463;52.378;9.688;2023-05-17T12:40:00;3.13;;;2.00;;
20609;SDS011;10463;52.378;9.688;2023-05-17T12:42:48;2.67;;;1.70;;
20609;SDS011;10463;52.378;9.688;2023-05-17T12:45:33;3.00;;;2.03;;
20609;SDS011;10463;52.378;9.688;2023-05-17T12:48:17;3.37;;;1.53;;
20609;SDS011;10463;52.378;9.688;2023-05-17T12:51:10;4.33;;;1.43;;
20609;SDS011;10463;52.378;9.688;2023-05-17T12:53:57;2.33;;;1.50;;
20609;SDS011;10463;52.378;9.688;2023-05-17T12:56:46;3.37;;;2.30;;
20609;SDS011;10463;52.378;9.688;2023-05-17T12:59:31;4.63;;;2.10;;
20609;SDS011;10463;52.378;9.688;2023-05-17T13:02:19;3.20;;;2.30;;
20609;SDS011;10463;52.378;9.688;2023-05-17T13:05:13;6.40;;;2.63;;
20609;SDS011;10463;52.378;9.688;2023-05-17T13:08:19;3.07;;;2.30;;
20609;SDS011;10463;52.378;9.688;2023-05-17T13:11:09;3.60;;;2.50;;
20609;SDS011;10463;52.378;9.688;2023-05-17T13:13:56;3.90;;;2.40;;
20609;SDS011;10463;52.378;9.688;2023-05-17T13:16:41;3.30;;;2.10;;
20609;SDS011;10463;52.378;9.688;2023-05-17T13:19:26;5.00;;;2.50;;
20609;SDS011;10463;52.378;9.688;2023-05-17T13:22:10;9.43;;;2.50;;
20609;SDS011;10463;52.378;9.688;2023-05-17T13:24:55;6.43;;;2.60;;
20609;SDS011;10463;52.378;9.688;2023-05-17T13:27:40;6.63;;;2.70;;
20609;SDS011;10463;52.378;9.688;2023-05-17T13:30:31;7.57;;;2.57;;
20609;SDS011;10463;52.378;9.688;2023-05-17T13:34:10;5.03;;;2.80;;
20609;SDS011;10463;52.378;9.688;2023-05-17T13:36:56;5.70;;;2.37;;
20609;SDS011;10463;52.378;9.688;2023-05-17T13:39:41;3.33;;;2.17;;
20609;SDS011;10463;52.378;9.688;2023-05-17T13:42:26;4.83;;;1.93;;
20609;SDS011;10463;52.378;9.688;2023-05-17T13:45:10;6.53;;;2.73;;
20609;SDS011;10463;52.378;9.688;2023-05-17T13:47:56;6.50;;;2.10;;
20609;SDS011;10463;52.378;9.688;2023-05-17T13:50:43;3.83;;;1.67;;
20609;SDS011;10463;52.378;9.688;2023-05-17T13:53:28;4.10;;;1.50;;
20609;SDS011;10463;52.378;9.688;2023-05-17T13:56:13;3.10;;;1.43;;
20609;SDS011;10463;52.378;9.688;2023-05-17T13:58:57;3.60;;;2.40;;
20609;SDS011;10463;52.378;9.688;2023-05-17T14:01:42;3.27;;;1.97;;
20609;SDS011;10463;52.378;9.688;2023-05-17T14:04:28;3.60;;;1.93;;
20609;SDS011;10463;52.378;9.688;2023-05-17T14:07:14;3.07;;;2.00;;
20609;SDS011;10463;52.378;9.688;2023-05-17T14:10:00;5.33;;;2.60;;
20609;SDS011;10463;52.378;9.688;2023-05-17T14:12:44;4.83;;;1.90;;
20609;SDS011;10463;52.378;9.688;2023-05-17T14:15:30;3.13;;;2.23;;
20609;SDS011;10463;52.378;9.688;2023-05-17T14:18:20;4.03;;;1.60;;
20609;SDS011;10463;52.378;9.688;2023-05-17T14:21:05;7.43;;;2.07;;
20609;SDS011;10463;52.378;9.688;2023-05-17T14:23:52;11.07;;;4.20;;
20609;SDS011;10463;52.378;9.688;2023-05-17T14:26:37;5.73;;;4.03;;
20609;SDS011;10463;52.378;9.688;2023-05-17T14:29:22;6.87;;;4.20;;
20609;SDS011;10463;52.378;9.688;2023-05-17T14:32:06;13.23;;;4.87;;
20609;SDS011;10463;52.378;9.688;2023-05-17T14:34:51;8.53;;;4.70;;
20609;SDS011;10463;52.378;9.688;2023-05-17T14:37:36;6.57;;;2.80;;
20609;SDS011;10463;52.378;9.688;2023-05-17T14:40:22;5.70;;;2.80;;
20609;SDS011;10463;52.378;9.688;2023-05-17T14:43:06;9.90;;;3.93;;
20609;SDS011;10463;52.378;9.688;2023-05-17T14:45:51;6.10;;;2.30;;
20609;SDS011;10463;52.378;9.688;2023-05-17T14:48:35;4.70;;;2.30;;
20609;SDS011;10463;52.378;9.688;2023-05-17T14:51:20;2.60;;;1.60;;
20609;SDS011;10463;52.378;9.688;2023-05-17T14:54:05;4.30;;;2.13;;
20609;SDS011;10463;52.378;9.688;2023-05-17T14:56:51;2.93;;;1.60;;
20609;SDS011;10463;52.378;9.688;2023-05-17T14:59:36;2.40;;;1.50;;
20609;SDS011;10463;52.378;9.688;2023-05-17T15:02:21;2.80;;;1.80;;
20609;SDS011;10463;52.378;9.688;2023-05-17T15:05:06;2.80;;;2.00;;
20609;SDS011;10463;52.378;9.688;2023-05-17T15:07:51;4.40;;;2.27;;
20609;SDS011;10463;52.378;9.688;2023-05-17T15:10:36;4.50;;;2.30;;
20609;SDS011;10463;52.378;9.688;2023-05-17T15:13:23;4.83;;;2.27;;
20609;SDS011;10463;52.378;9.688;2023-05-17T15:16:08;3.70;;;1.80;;
20609;SDS011;10463;52.378;9.688;2023-05-17T15:18:53;3.37;;;1.80;;
20609;SDS011;10463;52.378;9.688;2023-05-17T15:21:37;2.90;;;2.20;;
20609;SDS011;10463;52.378;9.688;2023-05-17T15:24:21;4.07;;;2.43;;
20609;SDS011;10463;52.378;9.688;2023-05-17T15:27:06;5.60;;;3.20;;
20609;SDS011;10463;52.378;9.688;2023-05-17T15:29:52;4.67;;;3.00;;
20609;SDS011;10463;52.378;9.688;2023-05-17T15:32:37;5.40;;;3.30;;
20609;SDS011;10463;52.378;9.688;2023-05-17T15:35:21;4.73;;;3.20;;
20609;SDS011;10463;52.378;9.688;2023-05-17T15:38:06;4.00;;;2.60;;
20609;SDS011;10463;52.378;9.688;2023-05-17T15:40:59;5.00;;;3.90;;
20609;SDS011;10463;52.378;9.688;2023-05-17T15:43:47;3.80;;;3.00;;
20609;SDS011;10463;52.378;9.688;2023-05-17T15:46:33;5.40;;;3.53;;
20609;SDS011;10463;52.378;9.688;2023-05-17T15:49:17;3.40;;;2.57;;
20609;SDS011;10463;52.378;9.688;2023-05-17T15:52:02;3.60;;;2.80;;
20609;SDS011;10463;52.378;9.688;2023-05-17T15:54:48;4.00;;;2.40;;
20609;SDS011;10463;52.378;9.688;2023-05-17T15:57:33;3.20;;;2.43;;
20609;SDS011;10463;52.378;9.688;2023-05-17T16:00:19;2.40;;;1.70;;
20609;SDS011;10463;52.378;9.688;2023-05-17T16:03:06;3.23;;;2.20;;
20609;SDS011;10463;52.378;9.688;2023-05-17T16:05:50;3.63;;;1.93;;
20609;SDS011;10463;52.378;9.688;2023-05-17T16:08:36;3.33;;;1.63;;
20609;SDS011;10463;52.378;9.688;2023-05-17T16:11:20;2.93;;;1.77;;
20609;SDS011;10463;52.378;9.688;2023-05-17T16:14:07;3.90;;;2.10;;
20609;SDS011;10463;52.378;9.688;2023-05-17T16:16:51;2.97;;;1.67;;
20609;SDS011;10463;52.378;9.688;2023-05-17T16:19:37;2.37;;;1.60;;
20609;SDS011;10463;52.378;9.688;2023-05-17T16:22:22;2.63;;;1.83;;
20609;SDS011;10463;52.378;9.688;2023-05-17T16:25:07;2.90;;;1.90;;
20609;SDS011;10463;52.378;9.688;2023-05-17T16:27:52;3.00;;;1.77;;
20609;SDS011;10463;52.378;9.688;2023-05-17T16:30:36;1.93;;;1.40;;
20609;SDS011;10463;52.378;9.688;2023-05-17T16:33:21;3.00;;;1.57;;
20609;SDS011;10463;52.378;9.688;2023-05-17T16:36:07;3.30;;;2.10;;
20609;SDS011;10463;52.378;9.688;2023-05-17T16:38:52;4.10;;;1.67;;
20609;SDS011;10463;52.378;9.688;2023-05-17T16:41:37;3.00;;;1.70;;